Have a Safe July 4th! 

Flight Track Log - Related Links

Times and Time Zones

All times are in EDT time to prevent confusion due to time zone crossing. See the EJA583 flight status page for this flight to view local times or setup timezone preferences in your user account.

Time Position Orientation Groundspeed Altitude Reporting Facility
EDT Latitude Longitude Course Direction KTS MPH feet Rate Location/Type
Tue 02:03:28 PM 32.8333 -96.8333 134° Southeast 180 207 1,600  Level Dallas / Fort Worth TRACON
Tue 02:04:58 PM 32.7667 -96.7500 134° Southeast 243 280 6,600 2,860 Climbing Dallas / Fort Worth TRACON
Tue 02:06:41 PM 32.6953 -96.6456 129° Southeast 274 315 10,800 2,613 Climbing Fort Worth Center
Tue 02:07:41 PM 32.6489 -96.5697 126° Southeast 274 315 13,700 2,500 Climbing Fort Worth Center
Tue 02:08:41 PM 32.7092 -96.5147 38° Northeast 186 214 15,800 1,750 Climbing Fort Worth Center
Tue 02:09:41 PM 32.7439 -96.4256 65° Northeast 253 291 17,200 1,350 Climbing Fort Worth Center
Tue 02:10:41 PM 32.7556 -96.3117 83° East 319 367 18,500 1,350 Climbing Fort Worth Center
Tue 02:11:41 PM 32.7397 -96.1958 99° East 339 390 19,900 1,700 Climbing Fort Worth Center
Tue 02:12:41 PM 32.7219 -96.0825 101° East 356 410 21,900 1,700 Climbing Fort Worth Center
Tue 02:13:41 PM 32.7019 -95.9667 102° East 350 403 23,300 1,300 Climbing Fort Worth Center
Tue 02:14:41 PM 32.6817 -95.8511 102° East 350 403 24,500 1,100 Climbing Fort Worth Center
Tue 02:15:41 PM 32.6656 -95.7328 99° East 355 409 25,500 1,000 Climbing Fort Worth Center
Tue 02:16:41 PM 32.6556 -95.6097 95° East 360 414 26,500 1,026 Climbing Fort Worth Center
Tue 02:18:13 PM 32.6742 -95.4211 83° East 381 438 28,100 1,006 Climbing Houston Center
Tue 02:19:16 PM 32.6819 -95.2958 86° East 382 440 29,100 960 Climbing Houston Center
Tue 02:20:18 PM 32.6911 -95.1700 85° East 381 438 30,100 968 Climbing Houston Center
Tue 02:21:20 PM 32.6983 -95.0431 86° East 384 442 31,100 1,065 Climbing Houston Center
Tue 02:22:22 PM 32.7083 -94.8903 86° East 385 443 32,300 1,065 Climbing Houston Center
Tue 02:23:24 PM 32.7044 -94.7672 92° East 379 436 33,300 968 Climbing Houston Center
Tue 02:24:26 PM 32.6639 -94.6458 112° Southeast 395 455 34,300 1,016 Climbing Houston Center
Tue 02:25:28 PM 32.6231 -94.5267 112° Southeast 390 449 35,400 1,016 Climbing Houston Center
Tue 02:26:30 PM 32.5825 -94.4044 111° Southeast 395 455 36,400 968 Climbing Houston Center
Tue 02:27:32 PM 32.5464 -94.2803 109° East 397 457 37,400 968 Climbing Houston Center
Tue 02:28:34 PM 32.5106 -94.1578 109° East 394 453 38,400 1,065 Climbing Houston Center
Tue 02:29:36 PM 32.4675 -94.0094 109° East 395 455 39,600 1,065 Climbing Houston Center
Tue 02:30:38 PM 32.4317 -93.8869 109° East 393 452 40,600 672 Climbing Houston Center
Tue 02:31:41 PM 32.3922 -93.7650 111° Southeast 385 443 41,000 195 Climbing Fort Worth Center
Tue 02:32:41 PM 32.3572 -93.6408 108° East 385 443 41,000  Level Fort Worth Center
Tue 02:34:47 PM 32.2800 -93.3739 109° East 392 451 41,000  Level Houston Center
Tue 02:35:49 PM 32.2442 -93.2539 109° East 390 449 41,000  Level Houston Center
Tue 02:36:51 PM 32.2086 -93.1342 109° East 386 444 41,000  Level Houston Center
Tue 02:37:53 PM 32.1717 -93.0119 110° East 392 451 41,000  Level Houston Center
Tue 02:38:55 PM 32.1353 -92.8922 110° East 389 448 41,000  Level Houston Center
Tue 02:39:57 PM 32.0997 -92.7714 109° East 389 448 41,000  Level Houston Center
Tue 02:40:59 PM 32.0631 -92.6525 110° East 383 441 41,000  Level Houston Center
Tue 02:42:01 PM 32.0192 -92.5083 110° East 388 447 41,000  Level Houston Center
Tue 02:43:03 PM 31.9819 -92.3897 110° East 387 445 41,000  Level Houston Center
Tue 02:44:05 PM 31.9458 -92.2700 110° East 388 447 41,000  Level Houston Center
Tue 02:45:07 PM 31.9092 -92.1514 110° East 387 445 41,000  Level Houston Center
Tue 02:46:09 PM 31.8719 -92.0317 110° East 387 445 41,000  Level Houston Center
Tue 02:47:11 PM 31.8336 -91.9100 110° East 391 450 41,000  Level Houston Center
Tue 02:48:14 PM 31.7892 -91.7667 110° East 390 449 41,000  Level Houston Center
Tue 02:49:16 PM 31.7517 -91.6478 110° East 388 447 41,000  Level Houston Center
Tue 02:50:18 PM 31.7139 -91.5283 110° East 390 449 41,000  Level Houston Center
Tue 02:51:20 PM 31.6756 -91.4075 110° East 393 452 41,000  Level Houston Center
Tue 02:52:22 PM 31.6386 -91.2889 110° East 389 448 41,000  Level Houston Center
Tue 02:53:24 PM 31.6000 -91.1697 111° Southeast 389 448 41,000  Level Houston Center
Tue 02:54:26 PM 31.5597 -91.0450 111° Southeast 390 449 41,000  Level Houston Center
Tue 02:55:28 PM 31.5228 -90.9264 110° East 389 448 41,000  Level Houston Center
Tue 02:56:30 PM 31.4833 -90.8094 112° Southeast 387 445 41,000 -48 Level Houston Center
Tue 02:57:32 PM 31.4381 -90.6672 110° East 388 447 40,900 -435 Descending Houston Center
Tue 02:58:34 PM 31.4028 -90.5500 109° East 384 442 40,100 -871 Descending Houston Center
Tue 02:59:36 PM 31.3569 -90.4317 114° Southeast 395 455 39,100 -532 Descending Houston Center
Tue 03:00:38 PM 31.3117 -90.3158 115° Southeast 393 452 39,000 -48 Descending Houston Center
Tue 03:01:40 PM 31.2661 -90.1992 115° Southeast 395 455 39,000  Level Houston Center
Tue 03:02:42 PM 31.2408 -90.0747 103° East 393 452 39,000 -581 Level Houston Center
Tue 03:03:44 PM 31.2108 -89.9267 103° East 388 447 37,800 -1,032 Descending Houston Center
Tue 03:05:00 PM 31.1856 -89.7787 101° East  Level FlightAware Approximate
Tue 03:05:48 PM 31.1636 -89.6819 101° East 385 443 35,800  Level Houston Center
Tue 03:06:50 PM 31.1397 -89.5586 103° East 387 445 34,700 -1,016 Descending Houston Center
Tue 03:07:52 PM 31.1147 -89.4317 103° East 398 458 33,700 -968 Descending Houston Center
Tue 03:08:54 PM 31.0892 -89.3017 103° East 406 467 32,700 -1,016 Descending Houston Center
Tue 03:09:56 PM 31.0631 -89.1722 103° East 408 470 31,600 -823 Descending Houston Center
Tue 03:10:58 PM 31.0308 -89.0158 103° East 410 472 31,000 -290 Descending Houston Center
Tue 03:12:00 PM 31.0042 -88.8881 104° East 410 472 31,000  Level Houston Center
Tue 03:13:02 PM 30.9753 -88.7578 104° East 414 476 31,000 -194 Level Houston Center
Tue 03:14:04 PM 30.9494 -88.6306 103° East 408 470 30,600 -726 Descending Houston Center
Tue 03:15:06 PM 30.9228 -88.4953 103° East 415 478 29,500 -1,016 Descending Houston Center
Tue 03:16:08 PM 30.8944 -88.3636 104° East 419 482 28,500 -1,065 Descending Houston Center
Tue 03:17:10 PM 30.8606 -88.2014 104° East 430 495 27,300 -1,065 Descending Houston Center
Tue 03:18:12 PM 30.8331 -88.0658 103° East 431 496 26,300 -968 Descending Houston Center
Tue 03:19:14 PM 30.8050 -87.9308 104° East 430 495 25,300 -968 Descending Houston Center
Tue 03:20:16 PM 30.7767 -87.7969 104° East 426 490 24,300 -629 Descending Houston Center
Tue 03:21:18 PM 30.7714 -87.6503 92° East 424 488 24,000 -778 Descending Houston Center
Tue 03:22:04 PM 30.7764 -87.5492 87° East 419 482 22,900 -1,585 Descending Jacksonville Center
Tue 03:23:04 PM 30.7853 -87.4167 86° East 405 466 21,200 -1,750 Descending Jacksonville Center
Tue 03:24:04 PM 30.7919 -87.2886 86° East 399 459 19,400 -1,650 Descending Jacksonville Center
Tue 03:25:04 PM 30.8003 -87.1633 86° East 394 453 17,900 -1,700 Descending Jacksonville Center
Tue 03:26:04 PM 30.8086 -87.0406 85° East 389 448 16,000 -1,800 Descending Jacksonville Center
Tue 03:27:04 PM 30.8167 -86.9197 86° East 377 434 14,300 -1,700 Descending Jacksonville Center
Tue 03:28:04 PM 30.8222 -86.8039 87° East 370 426 12,600 -1,900 Descending Jacksonville Center
Tue 03:29:04 PM 30.7875 -86.7108 113° Southeast 314 361 10,500 -1,750 Descending Jacksonville Center
Tue 03:30:04 PM 30.7153 -86.6811 161° South 282 325 9,100 -1,650 Descending Jacksonville Center
Tue 03:31:04 PM 30.6564 -86.6281 142° Southeast 276 318 7,200 -1,800 Descending Jacksonville Center
Tue 03:32:04 PM 30.6081 -86.5658 132° Southeast 265 305 5,500 -1,850 Descending Jacksonville Center
Tue 03:33:04 PM 30.5639 -86.5111 133° Southeast 250 288 3,500 -1,300 Descending Jacksonville Center
Tue 03:34:04 PM 30.5061 -86.4825 157° South 230 265 2,900 -800 Descending Jacksonville Center
Tue 03:35:04 PM 30.4539 -86.4878 185° South 201 231 1,900 -1,000 Descending Jacksonville Center

Login

Don't have an account? Register now (free) for customized features, flight alerts, and more!